Time;durP1;ratioP1;P1;durP2;ratioP2;P2;SDS_P1;SDS_P2;PMS_P1;PMS_P2;Temp;Humidity;BMP_temperature;BMP_pressure;BME280_temperature;BME280_humidity;BME280_pressure;Samples;Min_cycle;Max_cycle;Signal;HPM_P1;HPM_P2
2022/09/24 00:01:26;;;;;;;40.88;36.70;;;14.20;99.90;;;;;;5044281;28;20044;-77
2022/09/24 00:03:59;;;;;;;43.90;39.08;;;14.20;99.90;;;;;;5028616;28;20116;-78
2022/09/24 00:06:26;;;;;;;43.80;39.22;;;14.20;99.90;;;;;;5038219;28;20438;-77
2022/09/24 00:08:54;;;;;;;43.22;38.72;;;14.30;99.90;;;;;;5038324;28;20428;-78
2022/09/24 00:11:22;;;;;;;41.47;37.25;;;14.20;99.90;;;;;;5040008;28;20511;-77
2022/09/24 00:13:48;;;;;;;;;;;14.20;99.90;;;;;;5042527;28;20040;-77
2022/09/24 00:16:15;;;;;;;44.15;39.47;;;14.20;99.90;;;;;;5039876;28;19921;-77
2022/09/24 00:18:41;;;;;;;;;;;14.20;99.90;;;;;;5042594;28;20041;-77
2022/09/24 00:21:16;;;;;;;44.22;39.50;;;14.20;99.90;;;;;;5037499;28;19921;-77
2022/09/24 00:23:42;;;;;;;43.55;39.28;;;14.20;99.90;;;;;;5045360;28;20046;-77
2022/09/24 00:28:56;;;;;;;43.97;39.60;;;14.20;99.90;;;;;;5038364;28;20155;-77
2022/09/24 00:31:22;;;;;;;45.85;40.47;;;14.20;99.90;;;;;;5051027;28;20565;-76
2022/09/24 00:33:50;;;;;;;43.75;39.13;;;14.20;99.90;;;;;;5040468;28;20131;-77
2022/09/24 00:36:17;;;;;;;45.70;40.88;;;14.20;99.90;;;;;;5034012;28;20053;-77
2022/09/24 00:38:43;;;;;;;44.17;39.50;;;14.20;99.90;;;;;;5028270;28;20040;-77
2022/09/24 00:41:08;;;;;;;43.28;38.78;;;14.20;99.90;;;;;;5034577;28;20431;-77
2022/09/24 00:43:37;;;;;;;45.13;40.45;;;14.20;99.90;;;;;;5033116;28;20053;-77
2022/09/24 00:46:22;;;;;;;44.05;39.72;;;14.20;99.90;;;;;;5031027;28;20167;-78
2022/09/24 00:48:50;;;;;;;46.63;41.55;;;14.20;99.90;;;;;;5037796;28;20037;-77
2022/09/24 00:51:19;;;;;;;44.42;39.83;;;14.20;99.90;;;;;;5034319;28;20048;-75
2022/09/24 00:53:48;;;;;;;44.90;40.28;;;14.20;99.90;;;;;;5029040;28;20049;-76
2022/09/24 00:56:16;;;;;;;45.35;40.53;;;14.20;99.90;;;;;;5054018;28;20403;-77
2022/09/24 00:58:47;;;;;;;46.33;41.47;;;14.20;99.90;;;;;;5040117;28;20507;-77
2022/09/24 01:01:14;;;;;;;46.60;41.72;;;14.20;99.90;;;;;;5031190;28;20512;-74
2022/09/24 01:03:41;;;;;;;46.95;42.05;;;14.20;99.90;;;;;;5042164;28;20052;-77
2022/09/24 01:06:07;;;;;;;45.97;41.08;;;14.20;99.90;;;;;;5033491;28;20090;-76
2022/09/24 01:08:33;;;;;;;44.55;40.13;;;14.20;99.90;;;;;;5031737;28;20045;-77
2022/09/24 01:11:28;;;;;;;46.60;41.72;;;14.20;99.90;;;;;;5038496;28;20067;-78
2022/09/24 01:14:12;;;;;;;46.70;41.67;;;14.30;99.90;;;;;;5038410;28;20076;-77
2022/09/24 01:17:13;;;;;;;47.65;42.85;;;14.20;99.90;;;;;;5033067;28;20045;-77
2022/09/24 01:19:48;;;;;;;47.40;42.22;;;14.20;99.90;;;;;;5022669;28;20057;-77
2022/09/24 01:22:41;;;;;;;45.13;40.65;;;14.20;99.90;;;;;;5040544;28;20103;-78
2022/09/24 01:25:17;;;;;;;46.83;41.85;;;14.20;99.90;;;;;;5032652;28;20483;-78
2022/09/24 01:28:07;;;;;;;47.35;42.55;;;14.20;99.90;;;;;;5028591;28;20045;-76
2022/09/24 01:30:37;;;;;;;47.47;42.47;;;14.20;99.90;;;;;;5033852;28;20132;-77
2022/09/24 01:33:07;;;;;;;46.08;41.45;;;14.10;99.90;;;;;;5028783;28;20049;-77
2022/09/24 01:35:40;;;;;;;45.47;40.75;;;14.20;99.90;;;;;;5031451;28;20115;-77
2022/09/24 01:38:37;;;;;;;48.10;42.53;;;14.20;99.90;;;;;;5037872;28;20037;-77
2022/09/24 01:41:04;;;;;;;49.22;43.88;;;14.20;99.90;;;;;;5037010;28;20046;-77
2022/09/24 01:43:31;;;;;;;;;;;14.20;99.90;;;;;;5032541;28;20037;-77
2022/09/24 01:46:00;;;;;;;48.10;42.90;;;14.10;99.90;;;;;;5030532;28;19916;-78
2022/09/24 01:48:26;;;;;;;48.40;42.75;;;14.10;99.90;;;;;;5028535;28;20038;-77
2022/09/24 01:51:13;;;;;;;46.28;41.28;;;14.20;99.90;;;;;;5033429;28;20052;-77
2022/09/24 01:53:48;;;;;;;45.92;41.10;;;14.20;99.90;;;;;;5031930;28;20049;-77
2022/09/24 01:56:21;;;;;;;45.72;40.85;;;14.10;99.90;;;;;;5032385;28;20317;-77
2022/09/24 01:58:59;;;;;;;46.17;41.28;;;14.10;99.90;;;;;;5038218;28;20049;-77
2022/09/24 02:01:44;;;;;;;46.58;41.78;;;14.10;99.90;;;;;;5037408;28;20053;-77
2022/09/24 02:04:18;;;;;;;45.75;41.05;;;14.10;99.90;;;;;;5036450;28;20051;-77
2022/09/24 02:06:58;;;;;;;46.70;41.65;;;14.10;99.90;;;;;;5030496;28;20131;-76
2022/09/24 02:09:34;;;;;;;47.30;42.28;;;14.10;99.90;;;;;;5038645;28;20036;-77
2022/09/24 02:12:10;;;;;;;48.30;43.03;;;14.10;99.90;;;;;;5028291;28;20049;-77
2022/09/24 02:14:41;;;;;;;49.47;44.10;;;14.10;99.90;;;;;;5038975;28;20033;-77
2022/09/24 02:17:08;;;;;;;50.65;45.45;;;14.10;99.90;;;;;;5030374;28;20079;-78
2022/09/24 02:19:37;;;;;;;48.58;43.38;;;14.10;99.90;;;;;;5034969;28;20040;-76
2022/09/24 02:22:06;;;;;;;50.92;45.60;;;14.10;99.90;;;;;;5039523;28;20080;-77
2022/09/24 02:24:48;;;;;;;51.90;46.40;;;14.10;99.90;;;;;;5042796;28;20651;-77
2022/09/24 02:27:15;;;;;;;50.75;45.38;;;14.10;99.90;;;;;;5035794;28;20040;-77
2022/09/24 02:29:41;;;;;;;53.20;47.57;;;14.10;99.90;;;;;;5032754;28;20041;-77
2022/09/24 02:32:09;;;;;;;53.67;47.90;;;14.10;99.90;;;;;;5035652;28;20311;-78
2022/09/24 02:34:40;;;;;;;53.47;47.40;;;14.10;99.90;;;;;;5029339;28;20123;-78
2022/09/24 02:37:09;;;;;;;54.45;48.75;;;14.10;99.90;;;;;;5039989;28;20656;-77
2022/09/24 02:39:35;;;;;;;54.22;47.95;;;14.10;99.90;;;;;;5038153;28;20053;-77
2022/09/24 02:42:05;;;;;;;53.55;47.85;;;14.10;99.90;;;;;;5035651;28;20126;-77
2022/09/24 02:44:32;;;;;;;53.63;48.03;;;14.10;99.90;;;;;;5037712;28;20037;-76
2022/09/24 02:46:57;;;;;;;53.03;47.50;;;14.10;99.90;;;;;;5038070;28;20404;-78
2022/09/24 02:49:23;;;;;;;54.60;48.80;;;14.10;99.90;;;;;;5041710;28;20099;-77
2022/09/24 02:51:49;;;;;;;54.63;48.78;;;14.10;99.90;;;;;;5038722;28;20045;-77
2022/09/24 02:54:15;;;;;;;56.00;49.78;;;14.10;99.90;;;;;;5041856;28;20049;-77
2022/09/24 02:56:41;;;;;;;56.42;50.42;;;14.10;99.90;;;;;;5038285;28;20088;-77
2022/09/24 02:59:07;;;;;;;54.97;49.10;;;14.10;99.90;;;;;;5045281;28;20047;-77
2022/09/24 03:01:33;;;;;;;57.00;50.95;;;14.10;99.90;;;;;;5039405;28;20476;-77
2022/09/24 03:03:59;;;;;;;56.30;50.22;;;14.10;99.90;;;;;;5029224;28;20071;-77
2022/09/24 03:06:26;;;;;;;58.50;52.05;;;14.00;99.90;;;;;;5034697;28;20045;-76
2022/09/24 03:08:52;;;;;;;58.42;52.08;;;14.10;99.90;;;;;;5044936;28;20033;-78
2022/09/24 03:11:20;;;;;;;59.70;52.72;;;14.00;99.90;;;;;;5040291;28;20570;-77
2022/09/24 03:13:47;;;;;;;55.20;49.22;;;14.00;99.90;;;;;;5041933;28;20036;-77
2022/09/24 03:16:13;;;;;;;55.90;49.97;;;14.00;99.90;;;;;;5033039;28;20049;-77
2022/09/24 03:18:39;;;;;;;59.85;51.72;;;14.00;99.90;;;;;;5045391;28;20299;-78
2022/09/24 03:21:11;;;;;;;57.05;50.75;;;14.00;99.90;;;;;;5041393;28;20110;-78
2022/09/24 03:23:37;;;;;;;57.15;50.97;;;14.00;99.90;;;;;;5031695;28;20042;-78
2022/09/24 03:26:03;;;;;;;54.80;48.92;;;14.00;99.90;;;;;;5040167;28;20043;-77
2022/09/24 03:28:29;;;;;;;55.60;49.05;;;14.00;99.90;;;;;;5032846;28;20076;-76
2022/09/24 03:31:00;;;;;;;54.38;48.38;;;14.00;99.90;;;;;;5047701;28;20069;-77
2022/09/24 03:33:36;;;;;;;55.92;49.83;;;14.00;99.90;;;;;;5041497;28;20503;-77
2022/09/24 03:36:08;;;;;;;54.60;48.72;;;14.00;99.90;;;;;;5037489;28;20033;-76
2022/09/24 03:38:35;;;;;;;54.80;47.80;;;14.00;99.90;;;;;;5045179;28;20037;-77
2022/09/24 03:41:02;;;;;;;52.35;46.65;;;14.00;99.90;;;;;;5034119;28;20041;-77
2022/09/24 03:43:28;;;;;;;59.17;48.65;;;14.00;99.90;;;;;;5038331;28;20107;-77
2022/09/24 03:45:54;;;;;;;53.03;47.38;;;14.00;99.90;;;;;;5041649;28;20040;-76
2022/09/24 03:48:22;;;;;;;53.72;47.92;;;14.00;99.90;;;;;;5043321;28;20045;-77
2022/09/24 03:50:47;;;;;;;54.88;49.00;;;14.00;99.90;;;;;;5035271;28;20033;-77
2022/09/24 03:53:14;;;;;;;54.08;47.30;;;14.00;99.90;;;;;;5033657;28;20037;-77
2022/09/24 03:55:45;;;;;;;55.43;47.73;;;14.00;99.90;;;;;;5034786;28;20059;-77
2022/09/24 03:58:12;;;;;;;52.50;46.75;;;14.00;99.90;;;;;;5034077;28;20345;-77
2022/09/24 04:00:37;;;;;;;51.75;46.20;;;14.00;99.90;;;;;;5028886;28;20108;-77
2022/09/24 04:03:03;;;;;;;49.90;43.90;;;14.00;99.90;;;;;;5031708;28;20440;-77
2022/09/24 04:05:29;;;;;;;51.78;45.88;;;14.00;99.90;;;;;;5033147;28;20045;-77
2022/09/24 04:07:56;;;;;;;51.10;44.17;;;14.00;99.90;;;;;;5041619;28;20033;-77
2022/09/24 04:10:24;;;;;;;49.50;44.27;;;14.00;99.90;;;;;;5039850;28;20443;-77
2022/09/24 04:12:51;;;;;;;52.70;46.78;;;14.00;99.90;;;;;;5056474;28;20045;-77
2022/09/24 04:15:17;;;;;;;51.45;45.83;;;14.00;99.90;;;;;;5034036;28;20591;-77
2022/09/24 04:17:52;;;;;;;51.47;45.97;;;14.00;99.90;;;;;;5033895;28;20041;-78
2022/09/24 04:20:21;;;;;;;53.15;47.45;;;14.00;99.90;;;;;;5034167;28;20053;-78
2022/09/24 04:22:50;;;;;;;51.78;45.90;;;14.00;99.90;;;;;;5034450;28;20054;-77
2022/09/24 04:25:16;;;;;;;53.22;46.97;;;14.00;99.90;;;;;;5037355;28;20041;-78
2022/09/24 04:27:45;;;;;;;50.65;45.22;;;14.00;99.90;;;;;;5039501;28;20118;-77
2022/09/24 04:30:13;;;;;;;50.17;44.83;;;14.00;99.90;;;;;;5033476;28;20033;-77
2022/09/24 04:32:40;;;;;;;50.58;45.28;;;14.00;99.90;;;;;;5033497;28;20080;-77
2022/09/24 04:35:06;;;;;;;52.65;46.63;;;14.00;99.90;;;;;;5038317;28;20105;-77
2022/09/24 04:37:31;;;;;;;50.47;45.10;;;13.90;99.90;;;;;;5036436;28;20037;-76
2022/09/24 04:39:58;;;;;;;49.80;44.58;;;13.90;99.90;;;;;;5034099;28;20380;-77
2022/09/24 04:42:23;;;;;;;48.92;43.90;;;13.90;99.90;;;;;;5046051;28;20053;-77
2022/09/24 04:44:49;;;;;;;47.72;42.65;;;13.90;99.90;;;;;;5037096;28;20033;-77
2022/09/24 04:47:15;;;;;;;50.17;44.92;;;13.90;99.90;;;;;;5042438;28;20392;-77
2022/09/24 04:49:44;;;;;;;48.10;43.08;;;13.90;99.90;;;;;;5042375;28;20084;-77
2022/09/24 04:52:13;;;;;;;47.83;42.70;;;13.90;99.90;;;;;;5034815;28;20048;-77
2022/09/24 04:54:41;;;;;;;46.67;41.88;;;13.90;99.90;;;;;;5049127;28;20407;-77
2022/09/24 04:57:07;;;;;;;47.22;42.30;;;14.00;99.90;;;;;;5037689;28;20736;-76
2022/09/24 04:59:32;;;;;;;47.22;42.42;;;13.90;99.90;;;;;;5032627;28;20049;-76
2022/09/24 05:01:58;;;;;;;46.85;41.85;;;13.90;99.90;;;;;;5051687;28;20377;-78
2022/09/24 05:04:24;;;;;;;46.28;41.45;;;13.90;99.90;;;;;;5039190;28;20037;-77
2022/09/24 05:06:50;;;;;;;47.38;42.28;;;13.90;99.90;;;;;;5039894;28;20037;-76
2022/09/24 05:09:15;;;;;;;46.70;41.80;;;13.90;99.90;;;;;;5045313;28;20077;-77
2022/09/24 05:11:41;;;;;;;46.47;41.40;;;13.90;99.90;;;;;;5036810;28;20430;-78
2022/09/24 05:14:07;;;;;;;46.17;41.38;;;13.90;99.90;;;;;;5038615;28;20515;-77
2022/09/24 05:16:33;;;;;;;43.67;39.28;;;13.80;99.90;;;;;;5042965;28;20052;-77
2022/09/24 05:18:58;;;;;;;44.70;40.13;;;13.80;99.90;;;;;;5036485;28;20045;-77
2022/09/24 05:21:24;;;;;;;46.03;40.17;;;13.80;99.90;;;;;;5031910;28;20531;-77
2022/09/24 05:23:50;;;;;;;44.10;39.63;;;13.80;99.90;;;;;;5039874;28;20098;-77
2022/09/24 05:29:00;;;;;;;41.97;37.65;;;13.90;99.90;;;;;;5034157;28;20106;-77
2022/09/24 05:31:26;;;;;;;44.50;39.72;;;13.90;99.90;;;;;;5029896;28;20045;-77
2022/09/24 05:33:52;;;;;;;41.85;37.58;;;13.90;99.90;;;;;;5033226;28;20049;-77
2022/09/24 05:36:18;;;;;;;40.88;36.58;;;13.80;99.90;;;;;;5030186;28;20042;-77
2022/09/24 05:38:44;;;;;;;41.20;36.90;;;13.90;99.90;;;;;;5042131;28;20048;-78
2022/09/24 05:41:09;;;;;;;42.47;36.35;;;13.90;99.90;;;;;;5030293;28;20037;-78
2022/09/24 05:43:35;;;;;;;41.72;37.25;;;13.90;99.90;;;;;;5030091;28;20120;-77
2022/09/24 05:46:01;;;;;;;38.90;34.92;;;13.90;99.90;;;;;;5035967;28;20572;-78
2022/09/24 05:48:27;;;;;;;40.03;35.85;;;13.90;99.90;;;;;;5037260;28;20045;-78
2022/09/24 05:50:55;;;;;;;39.00;34.95;;;13.90;99.90;;;;;;5052893;28;20049;-77
2022/09/24 05:53:22;;;;;;;39.17;34.97;;;13.90;99.90;;;;;;5039794;28;20068;-78
2022/09/24 05:55:48;;;;;;;41.22;36.55;;;13.90;99.90;;;;;;5029665;28;20053;-77
2022/09/24 05:58:13;;;;;;;40.97;36.33;;;13.90;99.90;;;;;;5030638;28;20064;-77
2022/09/24 06:00:39;;;;;;;42.83;38.05;;;13.90;99.90;;;;;;5042571;28;20411;-77
2022/09/24 06:03:16;;;;;;;41.85;37.28;;;13.90;99.90;;;;;;5036429;28;20056;-77
2022/09/24 06:05:49;;;;;;;43.15;37.75;;;13.90;99.90;;;;;;5026878;28;20037;-77
2022/09/24 06:08:16;;;;;;;42.05;37.45;;;13.90;99.90;;;;;;5036685;28;20053;-77
2022/09/24 06:10:44;;;;;;;42.13;37.55;;;13.90;99.90;;;;;;5036575;28;20271;-76
2022/09/24 06:13:10;;;;;;;44.28;37.90;;;13.90;99.90;;;;;;5036492;28;20045;-75
2022/09/24 06:15:37;;;;;;;43.45;37.90;;;13.90;99.90;;;;;;5032610;28;20408;-74
2022/09/24 06:18:07;;;;;;;41.60;37.15;;;13.90;99.90;;;;;;5037492;28;20059;-75
2022/09/24 06:20:33;;;;;;;40.92;36.50;;;13.90;99.90;;;;;;5034178;28;20046;-74
2022/09/24 06:22:59;;;;;;;42.50;36.63;;;14.00;99.90;;;;;;5038685;28;20044;-75
2022/09/24 06:25:29;;;;;;;41.30;36.80;;;14.00;99.90;;;;;;5029417;28;20099;-75
2022/09/24 06:27:59;;;;;;;42.08;37.58;;;13.90;99.90;;;;;;5034409;28;20080;-75
2022/09/24 06:30:34;;;;;;;40.55;36.22;;;14.00;99.90;;;;;;5036542;28;20101;-75
2022/09/24 06:33:05;;;;;;;41.25;36.75;;;14.00;99.90;;;;;;5029374;28;20033;-76
2022/09/24 06:35:38;;;;;;;42.50;38.00;;;14.00;99.90;;;;;;5037209;28;20044;-76
2022/09/24 06:38:05;;;;;;;42.22;37.25;;;14.00;99.90;;;;;;5036935;28;20040;-75
2022/09/24 06:40:32;;;;;;;43.60;38.88;;;14.00;99.90;;;;;;5033908;28;20068;-78
2022/09/24 06:43:00;;;;;;;44.20;39.25;;;14.00;99.90;;;;;;5027953;28;20495;-77
2022/09/24 06:45:27;;;;;;;50.13;40.72;;;14.00;99.90;;;;;;5034483;28;20048;-77
2022/09/24 06:48:00;;;;;;;50.05;40.35;;;14.00;99.90;;;;;;5033352;28;20053;-77
2022/09/24 06:50:28;;;;;;;50.67;41.72;;;14.00;99.90;;;;;;5037244;28;20060;-77
2022/09/24 06:52:55;;;;;;;48.72;42.03;;;14.00;99.90;;;;;;5030213;28;20054;-77
2022/09/24 06:55:21;;;;;;;51.08;42.97;;;14.00;99.90;;;;;;5033470;28;20396;-77
2022/09/24 06:57:47;;;;;;;51.47;41.83;;;14.00;99.90;;;;;;5031513;28;20479;-77
2022/09/24 07:00:15;;;;;;;49.65;41.65;;;14.00;99.90;;;;;;5031921;28;20180;-77
2022/09/24 07:02:53;;;;;;;57.08;46.50;;;14.00;99.90;;;;;;5036089;28;20064;-78
2022/09/24 07:05:22;;;;;;;54.97;44.83;;;14.00;99.90;;;;;;5039522;28;20036;-77
2022/09/24 07:07:47;;;;;;;56.80;44.25;;;14.00;99.90;;;;;;5036448;28;20037;-76
2022/09/24 07:10:13;;;;;;;50.05;42.22;;;14.10;99.90;;;;;;5028778;28;20053;-77
2022/09/24 07:12:40;;;;;;;53.83;44.25;;;14.10;99.90;;;;;;5037914;28;20076;-77
2022/09/24 07:15:10;;;;;;;51.97;45.45;;;14.10;99.90;;;;;;5027660;28;20639;-77
2022/09/24 07:17:36;;;;;;;51.55;44.10;;;14.10;99.90;;;;;;5028594;28;20049;-77
2022/09/24 07:20:03;;;;;;;54.42;43.70;;;14.10;99.90;;;;;;5036809;28;20045;-77
2022/09/24 07:22:36;;;;;;;;;;;14.10;99.90;;;;;;5034321;28;20551;-76
2022/09/24 07:25:02;;;;;;;53.80;44.03;;;14.10;99.90;;;;;;5045910;28;20394;-78
2022/09/24 07:27:28;;;;;;;53.50;43.63;;;14.10;99.90;;;;;;5034093;28;20076;-78
2022/09/24 07:29:56;;;;;;;53.70;44.05;;;14.20;99.90;;;;;;5042965;28;20036;-78
2022/09/24 07:32:22;;;;;;;55.33;45.85;;;14.20;99.90;;;;;;5043034;28;20049;-77
2022/09/24 07:34:49;;;;;;;58.08;45.72;;;14.10;99.90;;;;;;5042927;28;20091;-78
2022/09/24 07:37:14;;;;;;;52.95;44.80;;;14.20;99.90;;;;;;5040779;28;20555;-77
2022/09/24 07:39:40;;;;;;;53.25;44.53;;;14.20;99.90;;;;;;5039106;28;20045;-78
2022/09/24 07:42:10;;;;;;;51.75;44.50;;;14.20;99.90;;;;;;5032670;28;20485;-77
2022/09/24 07:44:36;;;;;;;53.50;44.90;;;14.20;99.90;;;;;;5043620;28;20049;-79
2022/09/24 07:47:02;;;;;;;55.95;46.92;;;14.20;99.90;;;;;;5031945;28;20056;-83
2022/09/24 07:49:31;;;;;;;53.53;45.20;;;14.20;99.90;;;;;;5033925;28;20041;-80
2022/09/24 07:51:57;;;;;;;54.80;46.03;;;14.20;99.90;;;;;;5041068;28;20392;-76
2022/09/24 07:54:23;;;;;;;52.80;45.10;;;14.20;99.90;;;;;;5035323;28;20040;-79
2022/09/24 07:56:48;;;;;;;52.70;44.70;;;14.20;99.90;;;;;;5037265;28;20039;-81
2022/09/24 07:59:14;;;;;;;53.78;45.85;;;14.20;99.90;;;;;;5045104;28;20820;-82
2022/09/24 08:01:40;;;;;;;57.80;46.53;;;14.20;99.90;;;;;;5038574;28;20037;-83
2022/09/24 08:04:06;;;;;;;54.08;45.50;;;14.20;99.90;;;;;;5046917;28;20041;-83
2022/09/24 08:06:36;;;;;;;57.47;46.40;;;14.20;99.90;;;;;;5044742;28;20480;-81
2022/09/24 08:09:02;;;;;;;54.15;44.72;;;14.20;99.90;;;;;;5035995;28;20148;-82
2022/09/24 08:11:28;;;;;;;57.90;46.50;;;14.20;99.90;;;;;;5042134;28;20226;-81
2022/09/24 08:13:56;;;;;;;60.45;46.80;;;14.20;99.90;;;;;;5038952;28;20513;-80
2022/09/24 08:16:22;;;;;;;;;;;14.20;99.90;;;;;;5042294;28;20577;-81
2022/09/24 08:18:48;;;;;;;61.93;48.70;;;14.10;99.90;;;;;;5040308;28;19931;-80
2022/09/24 08:21:14;;;;;;;62.30;48.33;;;14.10;99.90;;;;;;5030933;28;20555;-81
2022/09/24 08:23:41;;;;;;;60.72;48.00;;;14.10;99.90;;;;;;5037140;28;20053;-80
2022/09/24 08:26:09;;;;;;;65.65;50.53;;;14.10;99.90;;;;;;5040718;28;20049;-77
2022/09/24 08:28:35;;;;;;;;;;;14.10;99.90;;;;;;5043903;28;20049;-80
2022/09/24 08:31:03;;;;;;;63.80;49.08;;;14.10;99.90;;;;;;5037044;28;19917;-78
2022/09/24 08:33:31;;;;;;;57.03;46.35;;;14.10;99.90;;;;;;5038032;28;20056;-86
2022/09/24 08:36:02;;;;;;;55.53;46.15;;;14.10;99.90;;;;;;5038374;28;20041;-80
2022/09/24 08:38:28;;;;;;;57.78;47.22;;;14.10;99.90;;;;;;5045144;28;20519;-78
2022/09/24 08:41:06;;;;;;;57.35;45.10;;;14.20;99.90;;;;;;5032801;28;20042;-79
2022/09/24 08:43:59;;;;;;;49.50;41.05;;;14.20;99.90;;;;;;5029714;28;20052;-77
2022/09/24 08:49:48;;;;;;;56.67;44.30;;;14.10;99.90;;;;;;5042400;28;20116;-81
2022/09/24 08:52:38;;;;;;;51.97;40.58;;;14.10;99.90;;;;;;5036103;28;20773;-81
2022/09/24 08:55:12;;;;;;;53.92;41.78;;;14.20;99.90;;;;;;5037865;28;20059;-80
2022/09/24 08:57:59;;;;;;;51.05;41.00;;;14.20;99.90;;;;;;5040193;28;20044;-82
2022/09/24 09:00:28;;;;;;;52.63;41.70;;;14.20;99.90;;;;;;5029345;28;20423;-80
2022/09/24 09:03:05;;;;;;;50.75;39.13;;;14.20;99.90;;;;;;5037013;28;20175;-81
2022/09/24 09:05:52;;;;;;;48.90;39.60;;;14.20;99.90;;;;;;5040152;28;20037;-81
2022/09/24 09:08:33;;;;;;;50.17;38.63;;;14.20;99.90;;;;;;5038718;28;20052;-81
2022/09/24 09:11:02;;;;;;;45.55;36.65;;;14.20;99.90;;;;;;5048741;28;20049;-82
2022/09/24 09:13:51;;;;;;;43.55;34.38;;;14.20;99.90;;;;;;5045804;28;20492;-82
2022/09/24 09:16:42;;;;;;;43.15;34.45;;;14.20;99.90;;;;;;5029426;28;20135;-82
2022/09/24 09:19:13;;;;;;;37.25;32.38;;;14.20;99.90;;;;;;5040367;28;20133;-81
2022/09/24 09:21:41;;;;;;;39.13;33.78;;;14.20;99.90;;;;;;5044956;28;20049;-86
2022/09/24 09:24:22;;;;;;;40.03;33.75;;;14.30;99.90;;;;;;5044944;28;20052;-81
2022/09/24 09:26:53;;;;;;;38.92;32.78;;;14.30;99.90;;;;;;5043835;28;20037;-82
2022/09/24 09:29:23;;;;;;;36.78;31.08;;;14.30;99.90;;;;;;5042680;28;20045;-83
2022/09/24 09:32:10;;;;;;;35.95;31.27;;;14.30;99.90;;;;;;5035169;28;20383;-82
2022/09/24 09:34:59;;;;;;;33.20;28.92;;;14.30;99.90;;;;;;5033168;28;20049;-74
2022/09/24 09:37:25;;;;;;;39.17;30.00;;;14.40;99.90;;;;;;4998959;28;20079;-77
2022/09/24 09:40:30;;;;;;;37.75;29.52;;;14.40;99.90;;;;;;5039924;28;20049;-77
2022/09/24 09:43:09;;;;;;;37.03;29.93;;;14.40;99.90;;;;;;5006098;28;20053;-77
2022/09/24 09:45:53;;;;;;;35.50;29.92;;;14.50;99.90;;;;;;5027051;28;20044;-77
2022/09/24 09:48:23;;;;;;;34.72;29.48;;;14.50;99.90;;;;;;5042873;28;20137;-77
2022/09/24 09:50:58;;;;;;;33.72;28.80;;;14.60;99.90;;;;;;5031155;28;20064;-78
2022/09/24 09:53:26;;;;;;;36.28;29.45;;;14.70;99.90;;;;;;5040904;28;20119;-77
2022/09/24 09:55:58;;;;;;;33.53;27.80;;;14.70;99.90;;;;;;5033536;28;20376;-77
2022/09/24 09:58:27;;;;;;;34.25;27.95;;;14.70;99.90;;;;;;5048422;28;20052;-77
2022/09/24 10:01:07;;;;;;;32.28;27.73;;;14.80;99.90;;;;;;5046940;28;20057;-78
2022/09/24 10:03:45;;;;;;;31.42;27.67;;;14.80;99.90;;;;;;5047586;28;20052;-77
2022/09/24 10:06:13;;;;;;;34.25;27.48;;;14.90;99.90;;;;;;5047808;28;20053;-77
2022/09/24 10:08:39;;;;;;;28.27;24.45;;;14.90;99.90;;;;;;5041291;28;20484;-76
2022/09/24 10:11:11;;;;;;;29.98;25.05;;;15.00;99.90;;;;;;5044782;28;20041;-75
2022/09/24 10:13:37;;;;;;;31.70;24.17;;;15.00;99.90;;;;;;5037362;28;20042;-78
2022/09/24 10:16:07;;;;;;;27.40;21.98;;;15.10;99.90;;;;;;5053406;28;20053;-82
2022/09/24 10:18:48;;;;;;;30.38;22.63;;;15.10;99.90;;;;;;5036261;28;20041;-77
2022/09/24 10:21:29;;;;;;;30.05;22.65;;;15.10;99.90;;;;;;5045409;28;20067;-82
2022/09/24 10:24:00;;;;;;;27.10;22.15;;;15.10;99.90;;;;;;5031282;28;20180;-76
2022/09/24 10:26:40;;;;;;;28.95;21.13;;;15.10;99.90;;;;;;5037245;28;20534;-78
2022/09/24 10:31:56;;;;;;;24.42;20.25;;;15.00;99.90;;;;;;5038223;28;20147;-81
2022/09/24 10:34:26;;;;;;;24.15;20.15;;;15.00;99.90;;;;;;5046555;28;20041;-84
2022/09/24 10:36:57;;;;;;;23.45;19.50;;;15.00;99.90;;;;;;5040524;28;20045;-76
2022/09/24 10:39:23;;;;;;;25.48;18.45;;;15.00;99.90;;;;;;5027738;28;20049;-78
2022/09/24 10:41:55;;;;;;;23.25;17.35;;;15.00;99.90;;;;;;5042706;28;20416;-78
2022/09/24 10:44:23;;;;;;;23.92;20.48;;;15.10;99.90;;;;;;5036026;28;20041;-81
2022/09/24 10:47:07;;;;;;;25.92;19.98;;;15.10;99.90;;;;;;5031867;28;20380;-77
2022/09/24 10:49:51;;;;;;;23.13;18.42;;;15.10;99.90;;;;;;5043903;28;20491;-80
2022/09/24 10:52:44;;;;;;;21.55;15.73;;;15.20;99.90;;;;;;5037795;28;20072;-83
2022/09/24 10:55:26;;;;;;;21.58;16.38;;;15.20;99.90;;;;;;5042711;28;20049;-81
2022/09/24 10:58:19;;;;;;;20.30;15.52;;;15.20;99.90;;;;;;5037296;28;20045;-84
2022/09/24 11:01:03;;;;;;;23.30;15.13;;;15.30;99.90;;;;;;5045056;28;20060;-83
2022/09/24 11:03:41;;;;;;;21.25;14.82;;;15.40;99.90;;;;;;5039267;28;20049;-84
2022/09/24 11:06:25;;;;;;;18.08;8.38;;;15.40;99.90;;;;;;5046983;28;20072;-78
2022/09/24 11:09:03;;;;;;;16.60;10.32;;;15.50;99.90;;;;;;5038063;28;20484;-78
2022/09/24 11:11:54;;;;;;;16.08;8.20;;;15.50;99.90;;;;;;5033324;28;20610;-80
2022/09/24 11:14:50;;;;;;;10.52;2.88;;;15.50;99.90;;;;;;5043521;28;20053;-81
2022/09/24 11:17:31;;;;;;;12.73;2.80;;;15.50;99.90;;;;;;5032416;28;20049;-79
2022/09/24 11:20:08;;;;;;;11.18;2.40;;;15.40;99.90;;;;;;5038666;28;20083;-81
2022/09/24 11:22:46;;;;;;;9.48;2.67;;;15.40;99.90;;;;;;5049232;28;20079;-79
2022/09/24 11:25:11;;;;;;;;;;;15.30;99.90;;;;;;5046243;28;20060;-78
2022/09/24 11:27:59;;;;;;;11.57;2.90;;;15.30;99.90;;;;;;5047304;28;20351;-79
2022/09/24 11:30:31;;;;;;;13.05;2.90;;;15.30;99.90;;;;;;5045994;28;20044;-76
2022/09/24 11:33:08;;;;;;;13.23;2.88;;;15.40;99.90;;;;;;5042107;28;20355;-78
2022/09/24 11:35:55;;;;;;;8.43;2.40;;;15.40;99.90;;;;;;5047416;28;20041;-77
2022/09/24 11:38:45;;;;;;;10.40;2.78;;;15.40;99.90;;;;;;5037317;28;20044;-80
2022/09/24 11:41:31;;;;;;;10.23;2.72;;;15.40;99.90;;;;;;5043961;28;20052;-82
2022/09/24 11:44:10;;;;;;;11.63;2.55;;;15.30;99.90;;;;;;5042491;28;20084;-82
2022/09/24 11:47:17;;;;;;;12.57;2.80;;;15.30;99.90;;;;;;5035544;28;20093;-81
2022/09/24 11:50:34;;;;;;;10.20;2.83;;;15.30;99.90;;;;;;5029311;28;20053;-77
2022/09/24 11:53:24;;;;;;;13.02;2.80;;;15.30;99.90;;;;;;5018123;28;20446;-82
2022/09/24 11:56:31;;;;;;;9.95;2.78;;;15.30;99.90;;;;;;5036239;28;20499;-84
2022/09/24 11:59:06;;;;;;;19.05;3.88;;;15.30;99.90;;;;;;5028109;28;20049;-82
2022/09/24 12:01:40;;;;;;;10.10;3.10;;;15.30;99.90;;;;;;5034683;28;20427;-81
2022/09/24 12:04:27;;;;;;;13.05;2.67;;;15.20;99.90;;;;;;5045960;28;20586;-78
2022/09/24 12:07:11;;;;;;;12.93;2.50;;;15.20;99.90;;;;;;5032785;28;20373;-77
2022/09/24 12:10:11;;;;;;;10.45;2.80;;;15.20;99.90;;;;;;5033330;28;20159;-79
2022/09/24 12:12:41;;;;;;;11.82;3.03;;;15.20;99.90;;;;;;5032284;28;20057;-78
2022/09/24 12:15:22;;;;;;;11.48;2.58;;;15.30;99.90;;;;;;5027763;28;20653;-78
2022/09/24 12:17:49;;;;;;;10.70;2.75;;;15.40;99.90;;;;;;5028499;28;20076;-77
2022/09/24 12:20:23;;;;;;;11.95;2.88;;;15.40;99.90;;;;;;5030454;28;20061;-77
2022/09/24 12:22:58;;;;;;;11.23;2.30;;;15.50;99.90;;;;;;5036449;28;20052;-78
2022/09/24 12:25:28;;;;;;;8.20;2.33;;;15.50;99.90;;;;;;5029724;28;20049;-78
2022/09/24 12:27:58;;;;;;;6.78;2.08;;;15.50;99.90;;;;;;5032561;28;20051;-84
2022/09/24 12:33:44;;;;;;;11.82;2.42;;;15.60;99.90;;;;;;5043205;28;20049;-77
2022/09/24 12:36:53;;;;;;;8.32;1.77;;;15.60;99.90;;;;;;5036199;28;20044;-76
2022/09/24 12:39:23;;;;;;;8.85;1.75;;;15.60;99.90;;;;;;5014262;28;20053;-75
2022/09/24 12:42:00;;;;;;;7.85;1.83;;;15.60;99.90;;;;;;5035523;28;20495;-87
2022/09/24 12:44:52;;;;;;;6.47;1.80;;;15.60;99.90;;;;;;5030847;28;20048;-82
2022/09/24 12:47:54;;;;;;;10.38;2.22;;;15.60;99.90;;;;;;4985013;28;20190;-81
2022/09/24 12:51:03;;;;;;;8.13;1.60;;;15.70;99.90;;;;;;4997347;28;20476;-82
2022/09/24 12:53:39;;;;;;;8.48;1.77;;;15.80;99.90;;;;;;4962203;28;20047;-81
2022/09/24 12:56:06;;;;;;;6.43;1.50;;;15.90;99.90;;;;;;4951810;28;20047;-81
2022/09/24 12:58:39;;;;;;;7.28;1.20;;;15.90;99.90;;;;;;4949976;28;20059;-81
2022/09/24 13:01:23;;;;;;;4.47;1.45;;;15.80;99.90;;;;;;5039004;28;20424;-78
2022/09/24 13:04:24;;;;;;;9.80;1.50;;;15.80;99.90;;;;;;5030203;28;20041;-78
2022/09/24 13:06:50;;;;;;;4.70;1.38;;;15.70;99.90;;;;;;5030838;28;20072;-77
2022/09/24 13:09:27;;;;;;;6.05;1.63;;;15.70;99.90;;;;;;5027310;28;20037;-77
2022/09/24 13:12:21;;;;;;;4.93;1.30;;;15.70;99.90;;;;;;5033589;28;20045;-77